Plattsmouth, NE

2:26 PM CDT on May 28, 2015 (GMT -0500)
Dixon's Landing at Beaver Lake | | Change Station
CLOSE
Current Station
Personal Weather Station
Location: Murray, NE
Elevation: 1040 ft
Nearby Weather Stations

Elev 1040 ft 40.93 °N, 95.89 °W | Updated 1 second ago

Light Drizzle
Light Drizzle
69.0 °F
Feels Like 69.0 °F
N
1.0
Wind Variable Wind from SSE

Today
High -- | Low -- °F
--% Chance of Precip.
Yesterday
High -- | Low -- °F
Precip. -- in
5:56 AM 8:45 PM
Waxing Gibbous, 78% visible
Pressure 30.04 in
Visibility 10.0 miles
Clouds Scattered Clouds 4900 ft
Scattered Clouds 5500 ft
Overcast 7500 ft
Dew Point 64 °F
Humidity 85%
Rainfall 0.00 in
Snow Depth Not available.
UV 3 out of 12
Pollen 5.30 out of 12
Air Quality Not available.
Flu Activity No Activity
METAR KPMV 281915Z AUTO 14008KT 10SM -DZ SCT049 SCT055 OVC075 20/17 A3004 RMK AO2 T02020165

More Conditions Fewer Conditions

Pressure 30.04 in
Visibility 10.0 miles
Clouds Scattered Clouds 4900 ft
Scattered Clouds 5500 ft
Overcast 7500 ft
Dew Point 64 °F
Humidity 85%
Rainfall 0.00 in
Snow Depth Not available.
UV 3 out of 12
Pollen 5.30 out of 12
Air Quality Not available.
Flu Activity No Activity
METAR KPMV 281915Z AUTO 14008KT 10SM -DZ SCT049 SCT055 OVC075 20/17 A3004 RMK AO2 T02020165

More Conditions Fewer Conditions

10-Day Weather Forecast

Almanac

Astronomy

May. 28, 2015 Rise Set
Actual Time
Civil Twilight
Nautical Twilight
Astronomical Twilight
Moon
Length of Visible Light
Length of Day
Tomorrow will be .
, % of the Moon is Illuminated

Today's Extremes

State Highs State Lows

Community

WunderPhotos

Upload Photos

1,825,031 photos uploaded!

WunderBlogs® & News

Nearby

Air Quality

  Air Quality AQ Index Pollutant
Not available.

Snow Depth

Station Depth Elevation

Earthquake Activity

City Distance Mag. Time & Date
Minimum magnitude displayed is 2.5.

Coastal Water Temperatures

Place Temperature

Stations

Nearby Weather Stations

Station Location Temp. Windchill Dew Point Humidity Wind Precip. Elev Updated Type